Bookmark and Share
Track history (hours):
 

Sand Master

More information available from US FCC via Universal Licensing System and Coast Guard Vessel Documentation Center.

Last reported at 2014-Apr-24 08:21 UTC. Time now 2014-Apr-24 22:03 UTC.
Position N 40°29' W 074°16'.

Length 33 m.

Type: Tug. MMSI: 367480970.

NotesDate/timePositionNaut miles runAvg speedWind from/ knotsBaromVisibWave heightAir tempDewpointWater temp
2014-Apr-24 08:21N 40°29' W 074°16'0 0.0
2014-Apr-24 04:03N 40°29' W 074°16'0 0.0
2014-Apr-24 03:16N 40°29' W 074°16'0 0.0
2014-Apr-24 02:22N 40°29' W 074°16'0 0.0
2014-Apr-23 00:25N 40°29' W 074°16'0 0.0
2014-Apr-22 19:14N 40°29' W 074°16'0 0.0
2014-Apr-22 18:33N 40°29' W 074°16'0 0.0
2014-Apr-22 17:33N 40°29' W 074°16'1 0.9
2014-Apr-22 16:13N 40°29' W 074°15'5 7.1
2014-Apr-22 15:33N 40°30' W 074°09'8 7.6
2014-Apr-22 14:33N 40°29' W 073°59'4 3.6
2014-Apr-22 13:33N 40°29' W 073°54'1 1.4
2014-Apr-22 12:33N 40°30' W 073°56'6 6.1
2014-Apr-22 11:33N 40°29' W 074°04'7 7.1
2014-Apr-22 10:33N 40°30' W 074°13'3 2.7
2014-Apr-22 09:31N 40°29' W 074°16'0 0.0
2014-Apr-22 08:33N 40°29' W 074°16'0 0.0
2014-Apr-22 07:32N 40°29' W 074°16'0 0.0
2014-Apr-22 06:33N 40°29' W 074°16'0 0.0
2014-Apr-22 05:33N 40°29' W 074°16'0 0.0
2014-Apr-22 04:34N 40°29' W 074°16'0 0.0
2014-Apr-22 03:32N 40°29' W 074°16'0 0.0
2014-Apr-22 02:33N 40°29' W 074°16'0 0.0
2014-Apr-22 01:34N 40°29' W 074°16'0 0.0
2014-Apr-22 00:32N 40°29' W 074°16'0 0.0
2014-Apr-21 23:32N 40°29' W 074°16'0 0.0
2014-Apr-21 22:33N 40°29' W 074°16'0 0.0
2014-Apr-21 21:33N 40°29' W 074°16'0 0.0
2014-Apr-21 20:31N 40°29' W 074°16'0 0.0
2014-Apr-21 19:33N 40°29' W 074°16'0 0.0
2014-Apr-21 18:32N 40°29' W 074°16'0 0.0
2014-Apr-21 17:33N 40°29' W 074°16'2 2.0
2014-Apr-21 16:31N 40°30' W 074°14'7 7.2
2014-Apr-21 15:33N 40°29' W 074°05'7 6.9
2014-Apr-21 14:33N 40°30' W 073°56'1 0.9
2014-Apr-21 13:33N 40°29' W 073°55'3 2.9
2014-Apr-21 12:34N 40°31' W 073°58'5 4.5
2014-Apr-21 11:33N 40°29' W 074°04'7 7.0
2014-Apr-21 10:33N 40°30' W 074°13'3 2.9
2014-Apr-21 09:33N 40°29' W 074°16'0 0.0
2014-Apr-21 08:33N 40°29' W 074°16'0 0.0
2014-Apr-21 07:34N 40°29' W 074°16'0 0.0
2014-Apr-21 06:33N 40°29' W 074°16'0 0.0
2014-Apr-21 05:33N 40°29' W 074°16'0 0.0
2014-Apr-21 04:31N 40°29' W 074°16'0 0.0
2014-Apr-21 03:33N 40°29' W 074°16'0 0.0
2014-Apr-21 02:30N 40°29' W 074°16'0 0.0
2014-Apr-21 01:31N 40°29' W 074°16'0 0.0
2014-Apr-21 00:33N 40°29' W 074°16'0 0.0
2014-Apr-20 22:31N 40°29' W 074°16'0 0.0
2014-Apr-20 21:31N 40°29' W 074°16'0 0.0
2014-Apr-20 20:24N 40°29' W 074°16'0 0.0
2014-Apr-20 18:30N 40°29' W 074°16'0 0.0
2014-Apr-20 17:30N 40°29' W 074°16'0 0.0
2014-Apr-20 16:14N 40°29' W 074°16'0 0.0
2014-Apr-20 15:21N 40°29' W 074°16'4 4.1
2014-Apr-20 14:20N 40°30' W 074°11'6 8.0
2014-Apr-20 13:33N 40°29' W 074°03'7 6.5
2014-Apr-20 12:33N 40°29' W 073°55'0 0.2
2014-Apr-20 11:33N 40°29' W 073°55'4 3.7
2014-Apr-20 10:33N 40°31' W 073°59'5 4.6
2014-Apr-20 09:30N 40°29' W 074°05'7 6.7
2014-Apr-20 08:32N 40°30' W 074°14'2 2.0
2014-Apr-20 07:30N 40°29' W 074°16'0 0.0
2014-Apr-20 05:05N 40°29' W 074°16'0 0.0
2014-Apr-20 00:05N 40°29' W 074°16'0 0.0
2014-Apr-19 22:28N 40°29' W 074°16'0 0.0
2014-Apr-19 21:27N 40°29' W 074°16'0 0.0
2014-Apr-19 17:30N 40°29' W 074°16'6 3.0
2014-Apr-19 15:33N 40°30' W 074°09'5 5.3
2014-Apr-19 14:33N 40°32' W 074°02'6 6.0
2014-Apr-19 13:33N 40°29' W 073°55'0 0.2
2014-Apr-19 12:34N 40°29' W 073°55'4 3.6
2014-Apr-19 11:32N 40°31' W 073°59'4 4.5
2014-Apr-19 10:33N 40°29' W 074°04'7 6.7
2014-Apr-19 09:33N 40°30' W 074°13'3 2.3
2014-Apr-19 08:25N 40°29' W 074°16'0 0.0
2014-Apr-19 07:33N 40°29' W 074°16'0 0.0
2014-Apr-19 06:33N 40°29' W 074°16'0 0.0
2014-Apr-19 05:33N 40°29' W 074°16'0 0.0
2014-Apr-19 04:34N 40°29' W 074°16'0 0.0
2014-Apr-19 03:33N 40°29' W 074°16'0 0.0
2014-Apr-19 02:33N 40°29' W 074°16'0 0.0
2014-Apr-19 01:33N 40°29' W 074°16'0 0.0
2014-Apr-19 00:29N 40°29' W 074°16'0 0.0
2014-Apr-18 23:33N 40°29' W 074°16'0 0.0
2014-Apr-18 22:31N 40°29' W 074°16'0 0.0
2014-Apr-18 21:33N 40°29' W 074°16'0 0.0
2014-Apr-18 20:33N 40°29' W 074°16'0 0.0
2014-Apr-18 19:33N 40°29' W 074°16'0 0.0
2014-Apr-18 18:34N 40°29' W 074°16'0 0.0
2014-Apr-18 17:30N 40°29' W 074°16'0 0.0
2014-Apr-18 16:33N 40°29' W 074°16'0 0.0
2014-Apr-18 15:33N 40°29' W 074°16'0 0.0
2014-Apr-18 14:33N 40°29' W 074°16'0 0.0
2014-Apr-18 13:33N 40°29' W 074°16'0 0.0
2014-Apr-18 12:33N 40°29' W 074°16'0 0.0
2014-Apr-18 11:33N 40°29' W 074°16'0 0.0
2014-Apr-18 10:32N 40°29' W 074°16'0 0.0
2014-Apr-18 09:33N 40°29' W 074°16'0 0.0
2014-Apr-18 08:28N 40°29' W 074°16'0 0.0
2014-Apr-18 07:32N 40°29' W 074°16'0 0.0
2014-Apr-18 06:13N 40°29' W 074°16'0 0.0
2014-Apr-18 05:18N 40°29' W 074°16'0 0.0
2014-Apr-18 04:31N 40°29' W 074°16'0 0.0
2014-Apr-18 03:30N 40°29' W 074°16'0 0.0
2014-Apr-18 02:31N 40°29' W 074°16'0 0.0
2014-Apr-18 01:25N 40°29' W 074°16'0 0.0
2014-Apr-18 00:08N 40°29' W 074°16'0 0.0
2014-Apr-17 23:20N 40°29' W 074°16'0 0.0
2014-Apr-17 22:31N 40°29' W 074°16'0 0.0
2014-Apr-17 21:19N 40°29' W 074°16'0 0.0
2014-Apr-17 20:27N 40°29' W 074°16'0 0.0
2014-Apr-17 19:33N 40°29' W 074°16'0 0.0
2014-Apr-17 18:33N 40°29' W 074°16'0 0.0
2014-Apr-17 17:33N 40°29' W 074°16'0 0.0
2014-Apr-17 14:27N 40°29' W 074°16'0 0.0
2014-Apr-17 10:17N 40°29' W 074°16'0 0.0
2014-Apr-17 09:25N 40°29' W 074°16'0 0.0
2014-Apr-17 08:29N 40°29' W 074°16'0 0.0
2014-Apr-17 07:27N 40°29' W 074°16'0 0.0
2014-Apr-17 06:26N 40°29' W 074°16'0 0.0
2014-Apr-17 05:06N 40°29' W 074°16'0 0.0
2014-Apr-17 03:14N 40°29' W 074°16'0 0.0
2014-Apr-17 02:32N 40°29' W 074°16'0 0.0
2014-Apr-17 01:26N 40°29' W 074°16'0 0.0
2014-Apr-17 00:08N 40°29' W 074°16'0 0.0
2014-Apr-16 23:22N 40°29' W 074°16'1 1.4
2014-Apr-16 22:26N 40°29' W 074°15'7 7.5
2014-Apr-16 21:33N 40°29' W 074°06'8 7.5
2014-Apr-16 20:33N 40°30' W 073°56'2 2.5
2014-Apr-16 19:33N 40°29' W 073°53'3 2.5
2014-Apr-16 18:32N 40°30' W 073°56'5 5.0
2014-Apr-16 17:33N 40°30' W 074°03'8 6.8
2014-Apr-16 16:25N 40°30' W 074°13'3 0.3
2014-Apr-16 07:26N 40°29' W 074°16'0 0.0
2014-Apr-16 06:14N 40°29' W 074°16'0 0.0
2014-Apr-16 04:34N 40°29' W 074°16'0 0.0
2014-Apr-16 03:25N 40°29' W 074°16'0 0.0
2014-Apr-16 00:13N 40°29' W 074°16'0 0.0
2014-Apr-15 21:30N 40°29' W 074°16'0 0.0
2014-Apr-15 20:22N 40°29' W 074°16'0 0.0
2014-Apr-15 19:31N 40°29' W 074°16'0 0.0
2014-Apr-15 15:28N 40°29' W 074°16'0 0.0
2014-Apr-15 14:32N 40°29' W 074°16'0 0.0
2014-Apr-15 12:30N 40°29' W 074°16'0 0.0
2014-Apr-15 09:30N 40°29' W 074°16'0 0.0
2014-Apr-15 07:33N 40°29' W 074°16'0 0.0
2014-Apr-15 06:31N 40°29' W 074°16'0 0.0
2014-Apr-15 05:34N 40°29' W 074°16'0 0.0
2014-Apr-15 03:34N 40°29' W 074°16'0 0.0
2014-Apr-15 02:34N 40°29' W 074°16'0 0.0
2014-Apr-15 01:34N 40°29' W 074°16'0 0.0
2014-Apr-15 00:33N 40°29' W 074°16'0 0.0
2014-Apr-14 23:32N 40°29' W 074°16'0 0.0
2014-Apr-14 22:33N 40°29' W 074°16'0 0.0
2014-Apr-14 21:33N 40°29' W 074°16'0 0.0
2014-Apr-14 20:34N 40°29' W 074°16'0 0.0
2014-Apr-14 19:32N 40°29' W 074°16'0 0.0
2014-Apr-14 18:31N 40°29' W 074°16'0 0.0
2014-Apr-14 17:33N 40°29' W 074°16'0 0.0
2014-Apr-14 16:33N 40°29' W 074°16'0 0.0
2014-Apr-14 15:33N 40°29' W 074°16'0 0.0
2014-Apr-14 14:33N 40°29' W 074°16'0 0.0
2014-Apr-14 13:34N 40°29' W 074°16'0 0.0
2014-Apr-14 11:33N 40°29' W 074°16'0 0.0
2014-Apr-14 10:33N 40°29' W 074°16'0 0.0
2014-Apr-14 09:33N 40°29' W 074°16'0 0.0
2014-Apr-14 08:33N 40°29' W 074°16'  

Dump ship's entire track history

sailing weather and tide predictions

Sand Master — WDF7088 — position and weather